Cofield, North Carolina
Current Conditions -  °F | °C
As of 7:55 PM on Monday 22 Dec 2014 (Local Time) from KASJ Reporting Station
Haze Haze  
Wind Chill: 37°   Ceiling: 300
Heat Index: 40°   Visibility: 3mi
Dew Point: 39°   Wind: 5mph
Humidity: 96%   Direction: 350°N
Pressure: 30.06"   Gusts: NA
Location:  36.36°N, 76.91°W
Report Text: KASJ 230055Z AUTO 35004KT 3SM BR OVC003 04/04 A3006 RMK AO2 T00440038
Loading
Personal Weather Stations






























Interactive Weather Map New forecast layout! Learn more

10-Day Weather Forecast

Advertisements
Track Severe Weather on mobile